Time,TemperatureF,DewpointF,PressureIn,WindDirection,WindDirectionDegrees,WindSpeedMPH,WindSpeedGustMPH,Humidity,HourlyPrecipIn,Conditions,Clouds,dailyrainin,SoftwareType,DateUTC
2013-07-05 00:00:00,59.0,-99.9,-100.00,NW,305,6.0,6.0,-999,-99.99,,,-99.99,,2013-07-05 06:00:00,
2013-07-05 00:44:00,59.0,-99.9,-100.00,NW,305,6.0,6.0,-999,-99.99,,,-99.99,,2013-07-05 06:44:00,
2013-07-05 00:53:00,59.0,-99.9,-100.00,NW,305,6.0,6.0,-999,-99.99,,,-99.99,,2013-07-05 06:53:00,
2013-07-05 01:00:00,59.0,-99.9,-100.00,North,355,4.0,4.0,-999,-99.99,,,-99.99,,2013-07-05 07:00:00,
2013-07-05 01:43:00,59.0,-99.9,-100.00,North,355,4.0,4.0,-999,-99.99,,,-99.99,,2013-07-05 07:43:00,
2013-07-05 01:53:00,59.0,-99.9,-100.00,North,355,4.0,4.0,-999,-99.99,,,-99.99,,2013-07-05 07:53:00,
2013-07-05 02:00:00,60.0,-99.9,-100.00,WNW,297,4.0,6.0,-999,-99.99,,,-99.99,,2013-07-05 08:00:00,
2013-07-05 02:44:00,60.0,-99.9,-100.00,WNW,297,4.0,6.0,-999,-99.99,,,-99.99,,2013-07-05 08:44:00,
2013-07-05 02:58:00,60.0,-99.9,-100.00,WNW,297,4.0,6.0,-999,-99.99,,,-99.99,,2013-07-05 08:58:00,
2013-07-05 03:00:00,59.0,-99.9,-100.00,WNW,290,4.0,8.0,-999,-99.99,,,-99.99,,2013-07-05 09:00:00,
2013-07-05 03:49:00,59.0,-99.9,-100.00,WNW,290,4.0,8.0,-999,-99.99,,,-99.99,,2013-07-05 09:49:00,
2013-07-05 03:58:00,59.0,-99.9,-100.00,WNW,290,4.0,8.0,-999,-99.99,,,-99.99,,2013-07-05 09:58:00,
2013-07-05 04:00:00,57.0,-99.9,-100.00,NE,55,7.0,7.0,-999,-99.99,,,-99.99,,2013-07-05 10:00:00,
2013-07-05 04:58:00,57.0,-99.9,-100.00,NE,55,7.0,7.0,-999,-99.99,,,-99.99,,2013-07-05 10:58:00,
2013-07-05 05:00:00,58.0,-99.9,-100.00,NNE,16,0.0,3.0,-999,-99.99,,,-99.99,,2013-07-05 11:00:00,
2013-07-05 05:39:00,58.0,-99.9,-100.00,NNE,16,0.0,3.0,-999,-99.99,,,-99.99,,2013-07-05 11:39:00,
2013-07-05 05:52:00,58.0,-99.9,-100.00,NNE,16,0.0,3.0,-999,-99.99,,,-99.99,,2013-07-05 11:52:00,
2013-07-05 06:00:00,56.0,-99.9,-100.00,SSE,158,7.0,8.0,-999,-99.99,,,-99.99,,2013-07-05 12:00:00,
2013-07-05 06:52:00,56.0,-99.9,-100.00,SSE,158,7.0,8.0,-999,-99.99,,,-99.99,,2013-07-05 12:52:00,
2013-07-05 07:00:00,57.0,-99.9,-100.00,SSE,163,6.0,9.0,-999,-99.99,,,-99.99,,2013-07-05 13:00:00,
2013-07-05 07:51:00,57.0,-99.9,-100.00,SSE,163,6.0,9.0,-999,-99.99,,,-99.99,,2013-07-05 13:51:00,
2013-07-05 07:59:00,57.0,-99.9,-100.00,SSE,163,6.0,9.0,-999,-99.99,,,-99.99,,2013-07-05 13:59:00,
2013-07-05 08:00:00,61.0,-99.9,-100.00,SE,131,8.0,9.0,-999,-99.99,,,-99.99,,2013-07-05 14:00:00,
2013-07-05 08:40:00,61.0,-99.9,-100.00,SE,131,8.0,9.0,-999,-99.99,,,-99.99,,2013-07-05 14:40:00,
2013-07-05 08:48:00,61.0,-99.9,-100.00,SE,131,8.0,9.0,-999,-99.99,,,-99.99,,2013-07-05 14:48:00,
2013-07-05 08:58:00,61.0,-99.9,-100.00,SE,131,8.0,9.0,-999,-99.99,,,-99.99,,2013-07-05 14:58:00,
2013-07-05 09:00:00,65.0,-99.9,-100.00,SE,145,9.0,9.0,-999,-99.99,,,-99.99,,2013-07-05 15:00:00,
2013-07-05 09:43:00,65.0,-99.9,-100.00,SE,145,9.0,9.0,-999,-99.99,,,-99.99,,2013-07-05 15:43:00,
2013-07-05 10:00:00,70.0,-99.9,-100.00,SSE,163,5.0,7.0,-999,-99.99,,,-99.99,,2013-07-05 16:00:00,
2013-07-05 10:33:00,70.0,-99.9,-100.00,SSE,163,5.0,7.0,-999,-99.99,,,-99.99,,2013-07-05 16:33:00,
2013-07-05 10:44:00,70.0,-99.9,-100.00,SSE,163,5.0,7.0,-999,-99.99,,,-99.99,,2013-07-05 16:44:00,
2013-07-05 10:54:00,70.0,-99.9,-100.00,SSE,163,5.0,7.0,-999,-99.99,,,-99.99,,2013-07-05 16:54:00,
2013-07-05 11:00:00,73.0,-99.9,-100.00,WNW,298,6.0,13.0,-999,-99.99,,,-99.99,,2013-07-05 17:00:00,
2013-07-05 11:53:00,73.0,-99.9,-100.00,WNW,298,6.0,13.0,-999,-99.99,,,-99.99,,2013-07-05 17:53:00,
2013-07-05 12:00:00,76.0,-99.9,-100.00,WNW,282,14.0,21.0,-999,-99.99,,,-99.99,,2013-07-05 18:00:00,
2013-07-05 12:43:00,76.0,-99.9,-100.00,WNW,282,14.0,21.0,-999,-99.99,,,-99.99,,2013-07-05 18:43:00,
2013-07-05 12:53:00,76.0,-99.9,-100.00,WNW,282,14.0,21.0,-999,-99.99,,,-99.99,,2013-07-05 18:53:00,
2013-07-05 13:00:00,78.0,-99.9,-100.00,NW,324,10.0,22.0,-999,-99.99,,,-99.99,,2013-07-05 19:00:00,
2013-07-05 13:43:00,78.0,-99.9,-100.00,NW,324,10.0,22.0,-999,-99.99,,,-99.99,,2013-07-05 19:43:00,
2013-07-05 13:53:00,78.0,-99.9,-100.00,NW,324,10.0,22.0,-999,-99.99,,,-99.99,,2013-07-05 19:53:00,
2013-07-05 14:00:00,77.0,-99.9,-100.00,NNW,332,21.0,25.0,-999,-99.99,,,-99.99,,2013-07-05 20:00:00,
2013-07-05 14:33:00,77.0,-99.9,-100.00,NNW,332,21.0,25.0,-999,-99.99,,,-99.99,,2013-07-05 20:33:00,
2013-07-05 14:43:00,77.0,-99.9,-100.00,NNW,332,21.0,25.0,-999,-99.99,,,-99.99,,2013-07-05 20:43:00,
2013-07-05 14:53:00,77.0,-99.9,-100.00,NNW,332,21.0,25.0,-999,-99.99,,,-99.99,,2013-07-05 20:53:00,
2013-07-05 15:00:00,74.0,-99.9,-100.00,NW,309,21.0,27.0,-999,-99.99,,,-99.99,,2013-07-05 21:00:00,
2013-07-05 15:43:00,74.0,-99.9,-100.00,NW,309,21.0,27.0,-999,-99.99,,,-99.99,,2013-07-05 21:43:00,
2013-07-05 15:53:00,74.0,-99.9,-100.00,NW,309,21.0,27.0,-999,-99.99,,,-99.99,,2013-07-05 21:53:00,
2013-07-05 16:00:00,72.0,-99.9,-100.00,WNW,293,9.0,14.0,-999,-99.99,,,-99.99,,2013-07-05 22:00:00,
2013-07-05 16:43:00,72.0,-99.9,-100.00,WNW,293,9.0,14.0,-999,-99.99,,,-99.99,,2013-07-05 22:43:00,
2013-07-05 16:53:00,72.0,-99.9,-100.00,WNW,293,9.0,14.0,-999,-99.99,,,-99.99,,2013-07-05 22:53:00,
2013-07-05 17:00:00,62.0,-99.9,-100.00,SSE,148,15.0,19.0,-999,-99.99,,,-99.99,,2013-07-05 23:00:00,
2013-07-05 17:43:00,62.0,-99.9,-100.00,SSE,148,15.0,19.0,-999,-99.99,,,-99.99,,2013-07-05 23:43:00,
2013-07-05 17:53:00,62.0,-99.9,-100.00,SSE,148,15.0,19.0,-999,-99.99,,,-99.99,,2013-07-05 23:53:00,
2013-07-05 18:00:00,66.0,-99.9,-100.00,SSE,164,8.0,15.0,-999,-99.99,,,-99.99,,2013-07-06 00:00:00,
2013-07-05 18:43:00,66.0,-99.9,-100.00,SSE,164,8.0,15.0,-999,-99.99,,,-99.99,,2013-07-06 00:43:00,
2013-07-05 18:53:00,66.0,-99.9,-100.00,SSE,164,8.0,15.0,-999,-99.99,,,-99.99,,2013-07-06 00:53:00,
2013-07-05 19:00:00,69.0,-99.9,-100.00,SE,139,9.0,13.0,-999,-99.99,,,-99.99,,2013-07-06 01:00:00,
2013-07-05 19:43:00,69.0,-99.9,-100.00,SE,139,9.0,13.0,-999,-99.99,,,-99.99,,2013-07-06 01:43:00,
2013-07-05 19:53:00,69.0,-99.9,-100.00,SE,139,9.0,13.0,-999,-99.99,,,-99.99,,2013-07-06 01:53:00,
2013-07-05 20:00:00,67.0,-99.9,-100.00,SSE,147,10.0,14.0,-999,-99.99,,,-99.99,,2013-07-06 02:00:00,
2013-07-05 20:34:00,67.0,-99.9,-100.00,SSE,147,10.0,14.0,-999,-99.99,,,-99.99,,2013-07-06 02:34:00,
2013-07-05 20:43:00,67.0,-99.9,-100.00,SSE,147,10.0,14.0,-999,-99.99,,,-99.99,,2013-07-06 02:43:00,
2013-07-05 20:53:00,67.0,-99.9,-100.00,SSE,147,10.0,14.0,-999,-99.99,,,-99.99,,2013-07-06 02:53:00,
2013-07-05 21:00:00,62.0,-99.9,-100.00,East,89,8.0,8.0,-999,-99.99,,,-99.99,,2013-07-06 03:00:00,
2013-07-05 21:43:00,62.0,-99.9,-100.00,East,89,8.0,8.0,-999,-99.99,,,-99.99,,2013-07-06 03:43:00,
2013-07-05 21:53:00,62.0,-99.9,-100.00,East,89,8.0,8.0,-999,-99.99,,,-99.99,,2013-07-06 03:53:00,
2013-07-05 22:00:00,60.0,-99.9,-100.00,ESE,119,7.0,8.0,-999,-99.99,,,-99.99,,2013-07-06 04:00:00,
2013-07-05 22:43:00,60.0,-99.9,-100.00,ESE,119,7.0,8.0,-999,-99.99,,,-99.99,,2013-07-06 04:43:00,
2013-07-05 22:53:00,60.0,-99.9,-100.00,ESE,119,7.0,8.0,-999,-99.99,,,-99.99,,2013-07-06 04:53:00,
2013-07-05 23:00:00,56.0,-99.9,-100.00,SE,141,7.0,8.0,-999,-99.99,,,-99.99,,2013-07-06 05:00:00,
2013-07-05 23:53:00,56.0,-99.9,-100.00,SE,141,7.0,8.0,-999,-99.99,,,-99.99,,2013-07-06 05:53:00,